Sacramento, California
Traffic Map
Current Weather Conditions
Sacramento, California
Overcast Moderate Rain
Overcast
14°
Feels Like: 14°
Wind Chill: 14° Ceiling: 600
Heat Index: 14° Visibility: 2mi
Dew Point: 14° Wind: 10mph
Humidity: 100% Direction: 160° (SSE)
Pressure: 30.09in Gusts: 21mph
Raw Report DataKSAC 101753Z 16009G18KT 2SM RA BR BKN006 OVC021 14/14 A3009 RMK AO2 RAE20B27 SLP188 P0004 60033 T01440144 10150 20144 53007
Traffic Incident Summary
Active as of:
Severity:
Category:
InformationThere was an issue retrieving the traffic information for this location. Please try a different location or try again shortly.
Advertisements
Track Severe Weather on mobile